Time,TemperatureF,DewpointF,PressureIn,WindDirection,WindDirectionDegrees,WindSpeedMPH,WindSpeedGustMPH,Humidity,HourlyPrecipIn,Conditions,Clouds,dailyrainin,SoftwareType,DateUTC
2013-06-13 11:40:00,90.0,76.6,29.59,WSW,247,3.5,3.5,65,0.00,CLR,SKC,0.00,WeatherDisplay:10.37,2013-06-13 15:40:00,
2013-06-13 11:41:00,90.0,76.6,29.59,WSW,247,3.5,3.5,65,0.00,CLR,SKC,0.00,WeatherDisplay:10.37,2013-06-13 15:41:00,
2013-06-13 11:46:00,90.0,77.1,29.59,WSW,247,3.5,3.5,66,0.00,CLR,SKC,0.00,WeatherDisplay:10.37,2013-06-13 15:46:00,
2013-06-13 11:51:00,90.0,77.6,29.59,SW,225,4.6,4.6,67,0.00,CLR,SKC,0.00,WeatherDisplay:10.37,2013-06-13 15:51:00,
2013-06-13 11:56:00,89.0,76.6,29.59,WSW,247,3.5,3.5,67,0.00,CLR,SKC,0.00,WeatherDisplay:10.37,2013-06-13 15:56:00,
2013-06-13 12:01:00,90.0,77.1,29.58,SW,225,3.5,3.5,66,0.00,CLR,SKC,0.00,WeatherDisplay:10.37,2013-06-13 16:01:00,
2013-06-13 12:06:00,91.0,76.7,29.58,SSW,202,4.6,4.6,63,0.00,CLR,SKC,0.00,WeatherDisplay:10.37,2013-06-13 16:06:00,
2013-06-13 12:11:00,92.0,78.5,29.57,East,90,4.6,4.6,65,0.00,CLR,SKC,0.00,WeatherDisplay:10.37,2013-06-13 16:11:00,
2013-06-13 12:17:00,92.0,77.6,29.57,SW,225,4.6,4.6,63,0.00,CLR,SKC,0.00,WeatherDisplay:10.37,2013-06-13 16:17:00,
2013-06-13 12:22:00,92.0,79.0,29.57,West,270,6.9,6.9,66,0.00,CLR,SKC,0.00,WeatherDisplay:10.37,2013-06-13 16:22:00,
2013-06-13 12:27:00,92.0,78.5,29.57,SW,225,3.5,3.5,65,0.00,CLR,SKC,0.00,WeatherDisplay:10.37,2013-06-13 16:27:00,
2013-06-13 12:32:00,93.0,76.6,29.56,SW,225,9.2,9.2,59,0.00,CLR,SKC,0.00,WeatherDisplay:10.37,2013-06-13 16:32:00,
2013-06-13 12:37:00,93.0,76.6,29.56,South,180,5.8,5.8,59,0.00,CLR,SKC,0.00,WeatherDisplay:10.37,2013-06-13 16:37:00,
2013-06-13 12:42:00,92.0,77.1,29.55,WSW,247,3.5,3.5,62,0.00,CLR,SKC,0.00,WeatherDisplay:10.37,2013-06-13 16:42:00,
2013-06-13 12:47:00,92.0,76.6,29.55,SW,225,5.8,5.8,61,0.00,CLR,SKC,0.00,WeatherDisplay:10.37,2013-06-13 16:47:00,
2013-06-13 12:52:00,93.0,78.1,29.55,SW,225,3.5,3.5,62,0.00,CLR,SKC,0.00,WeatherDisplay:10.37,2013-06-13 16:52:00,
2013-06-13 12:57:00,93.0,78.1,29.55,SW,225,3.5,3.5,62,0.00,CLR,SKC,0.00,WeatherDisplay:10.37,2013-06-13 16:57:00,
2013-06-13 13:02:00,93.0,77.6,29.55,West,270,4.0,4.0,61,0.00,CLR,SKC,0.00,WeatherDisplay:10.37,2013-06-13 17:02:00,
2013-06-13 13:07:00,92.0,76.6,29.55,South,180,5.8,5.8,61,0.00,CLR,SKC,0.00,WeatherDisplay:10.37,2013-06-13 17:07:00,
2013-06-13 13:12:00,92.0,77.6,29.54,South,180,3.5,3.5,63,0.00,CLR,SKC,0.00,WeatherDisplay:10.37,2013-06-13 17:12:00,
2013-06-13 13:17:00,93.0,78.1,29.54,NW,315,4.6,4.6,62,0.00,CLR,SKC,0.00,WeatherDisplay:10.37,2013-06-13 17:17:00,
2013-06-13 13:22:00,92.0,75.6,29.54,South,180,6.9,6.9,59,0.00,CLR,SKC,0.00,WeatherDisplay:10.37,2013-06-13 17:22:00,
2013-06-13 13:27:00,93.0,76.6,29.54,WSW,247,4.6,4.6,59,0.00,CLR,SKC,0.00,WeatherDisplay:10.37,2013-06-13 17:27:00,
2013-06-13 13:32:00,92.0,76.1,29.52,South,180,3.5,3.5,60,0.00,CLR,SKC,0.00,WeatherDisplay:10.37,2013-06-13 17:32:00,
2013-06-13 13:37:00,93.0,75.0,29.52,WNW,292,9.2,9.2,56,0.00,CLR,SKC,0.00,WeatherDisplay:10.37,2013-06-13 17:37:00,
2013-06-13 13:42:00,93.0,76.6,29.52,WSW,247,6.9,6.9,59,0.00,CLR,SKC,0.00,WeatherDisplay:10.37,2013-06-13 17:42:00,
2013-06-13 13:47:00,92.0,76.1,29.52,SW,225,5.0,5.0,60,0.00,CLR,SKC,0.00,WeatherDisplay:10.37,2013-06-13 17:47:00,
2013-06-13 13:52:00,92.0,75.1,29.51,NNW,337,8.1,8.1,58,0.00,CLR,SKC,0.00,WeatherDisplay:10.37,2013-06-13 17:52:00,
2013-06-13 13:57:00,93.0,75.0,29.51,SW,225,9.2,9.2,56,0.00,CLR,SKC,0.00,WeatherDisplay:10.37,2013-06-13 17:57:00,
2013-06-13 14:02:00,93.0,75.0,29.51,WSW,247,4.0,4.0,56,0.00,CLR,SKC,0.00,WeatherDisplay:10.37,2013-06-13 18:02:00,
2013-06-13 14:07:00,93.0,75.0,29.51,WSW,247,5.8,5.8,56,0.00,CLR,SKC,0.00,WeatherDisplay:10.37,2013-06-13 18:07:00,
2013-06-13 14:12:00,93.0,75.5,29.50,WNW,292,5.8,5.8,57,0.00,CLR,SKC,0.00,WeatherDisplay:10.37,2013-06-13 18:12:00,
2013-06-13 14:17:00,93.0,73.9,29.50,WNW,292,6.9,6.9,54,0.00,CLR,SKC,0.00,WeatherDisplay:10.37,2013-06-13 18:17:00,
2013-06-13 14:22:00,92.0,74.6,29.49,SW,225,6.9,6.9,57,0.00,CLR,SKC,0.00,WeatherDisplay:10.37,2013-06-13 18:22:00,
2013-06-13 14:27:00,92.0,74.6,29.49,SW,225,6.9,6.9,57,0.00,CLR,SKC,0.00,WeatherDisplay:10.37,2013-06-13 18:27:00,
2013-06-13 14:32:00,92.0,74.1,29.49,West,270,7.0,7.0,56,0.00,CLR,SKC,0.00,WeatherDisplay:10.37,2013-06-13 18:32:00,
2013-06-13 14:37:00,92.0,74.6,29.49,SSE,157,5.8,5.8,57,0.00,CLR,SKC,0.00,WeatherDisplay:10.37,2013-06-13 18:37:00,
2013-06-13 14:42:00,93.0,74.4,29.49,WSW,247,5.8,5.8,55,0.00,CLR,SKC,0.00,WeatherDisplay:10.37,2013-06-13 18:42:00,
2013-06-13 14:47:00,93.0,75.0,29.49,WSW,247,4.6,4.6,56,0.00,CLR,SKC,0.00,WeatherDisplay:10.37,2013-06-13 18:47:00,
2013-06-13 14:52:00,93.0,74.4,29.49,WSW,247,3.5,3.5,55,0.00,CLR,SKC,0.00,WeatherDisplay:10.37,2013-06-13 18:52:00,
2013-06-13 14:57:00,92.0,75.1,29.49,WSW,247,5.8,5.8,58,0.00,CLR,SKC,0.00,WeatherDisplay:10.37,2013-06-13 18:57:00,
2013-06-13 15:02:00,93.0,76.0,29.48,South,180,3.5,3.5,58,0.00,CLR,SKC,0.00,WeatherDisplay:10.37,2013-06-13 19:02:00,
2013-06-13 15:07:00,93.0,75.5,29.48,East,90,5.0,5.0,57,0.00,CLR,SKC,0.00,WeatherDisplay:10.37,2013-06-13 19:07:00,
2013-06-13 15:12:00,93.0,75.0,29.48,SW,225,4.6,4.6,56,0.00,CLR,SKC,0.00,WeatherDisplay:10.37,2013-06-13 19:12:00,
2013-06-13 15:17:00,93.0,74.4,29.48,WSW,247,6.0,6.0,55,0.00,CLR,SKC,0.00,WeatherDisplay:10.37,2013-06-13 19:17:00,
2013-06-13 15:22:00,93.0,75.0,29.49,West,270,3.5,3.5,56,0.00,CLR,SKC,0.00,WeatherDisplay:10.37,2013-06-13 19:22:00,
2013-06-13 15:27:00,93.0,75.5,29.49,West,270,5.8,5.8,57,0.00,CLR,SKC,0.00,WeatherDisplay:10.37,2013-06-13 19:27:00,
2013-06-13 15:32:00,93.0,76.6,29.48,SW,225,4.0,4.0,59,0.00,CLR,SKC,0.00,WeatherDisplay:10.37,2013-06-13 19:32:00,
2013-06-13 15:37:00,93.0,74.4,29.48,WSW,247,4.6,4.6,55,0.00,CLR,SKC,0.00,WeatherDisplay:10.37,2013-06-13 19:37:00,
2013-06-13 15:42:00,93.0,74.4,29.47,WSW,247,6.9,6.9,55,0.00,CLR,SKC,0.00,WeatherDisplay:10.37,2013-06-13 19:42:00,
2013-06-13 15:47:00,93.0,75.0,29.47,SW,225,8.1,8.1,56,0.00,CLR,SKC,0.00,WeatherDisplay:10.37,2013-06-13 19:47:00,
2013-06-13 15:52:00,93.0,76.0,29.47,NNW,337,4.6,4.6,58,0.00,CLR,SKC,0.00,WeatherDisplay:10.37,2013-06-13 19:52:00,
2013-06-13 15:57:00,93.0,75.0,29.47,WSW,247,8.1,8.1,56,0.00,CLR,SKC,0.00,WeatherDisplay:10.37,2013-06-13 19:57:00,
2013-06-13 16:02:00,93.0,75.5,29.46,SW,225,6.0,6.0,57,0.00,CLR,SKC,0.00,WeatherDisplay:10.37,2013-06-13 20:02:00,
2013-06-13 16:07:00,93.0,75.0,29.46,ESE,112,4.0,4.0,56,0.00,CLR,SKC,0.00,WeatherDisplay:10.37,2013-06-13 20:07:00,
2013-06-13 16:12:00,93.0,74.4,29.46,West,270,3.5,3.5,55,0.00,CLR,SKC,0.00,WeatherDisplay:10.37,2013-06-13 20:12:00,
2013-06-13 16:17:00,94.0,75.9,29.46,SW,225,4.6,4.6,56,0.00,CLR,SKC,0.00,WeatherDisplay:10.37,2013-06-13 20:17:00,
2013-06-13 16:22:00,93.0,74.4,29.45,SSW,202,5.8,5.8,55,0.00,CLR,SKC,0.00,WeatherDisplay:10.37,2013-06-13 20:22:00,
2013-06-13 16:27:00,93.0,76.6,29.45,WSW,247,2.3,2.3,59,0.00,CLR,SKC,0.00,WeatherDisplay:10.37,2013-06-13 20:27:00,
2013-06-13 16:32:00,93.0,75.0,29.44,WSW,247,6.9,6.9,56,0.00,CLR,SKC,0.00,WeatherDisplay:10.37,2013-06-13 20:32:00,
2013-06-13 16:37:00,93.0,73.9,29.44,WNW,292,4.6,4.6,54,0.00,CLR,SKC,0.00,WeatherDisplay:10.37,2013-06-13 20:37:00,
2013-06-13 16:42:00,93.0,75.0,29.44,West,270,4.0,4.0,56,0.00,CLR,SKC,0.00,WeatherDisplay:10.37,2013-06-13 20:42:00,
2013-06-13 16:47:00,94.0,75.9,29.44,WSW,247,3.5,3.5,56,0.00,CLR,SKC,0.00,WeatherDisplay:10.37,2013-06-13 20:47:00,
2013-06-13 16:52:00,94.0,75.9,29.44,SW,225,8.1,8.1,56,0.00,CLR,SKC,0.00,WeatherDisplay:10.37,2013-06-13 20:52:00,
2013-06-13 16:57:00,93.0,73.9,29.44,WSW,247,4.6,4.6,54,0.00,CLR,SKC,0.00,WeatherDisplay:10.37,2013-06-13 20:57:00,
2013-06-13 17:02:00,92.0,74.1,29.44,West,270,5.8,5.8,56,0.00,CLR,SKC,0.00,WeatherDisplay:10.37,2013-06-13 21:02:00,
2013-06-13 17:07:00,92.0,74.6,29.44,WSW,247,3.5,3.5,57,0.00,CLR,SKC,0.00,WeatherDisplay:10.37,2013-06-13 21:07:00,
2013-06-13 17:12:00,93.0,75.5,29.45,West,270,5.0,5.0,57,0.00,CLR,SKC,0.00,WeatherDisplay:10.37,2013-06-13 21:12:00,
2013-06-13 17:17:00,92.0,75.6,29.45,WSW,247,8.1,8.1,59,0.00,CLR,SKC,0.00,WeatherDisplay:10.37,2013-06-13 21:17:00,
2013-06-13 17:22:00,91.0,74.7,29.46,WNW,292,6.9,6.9,59,0.00,CLR,SKC,0.00,WeatherDisplay:10.37,2013-06-13 21:22:00,
2013-06-13 17:27:00,90.0,73.7,29.46,WSW,247,6.9,6.9,59,0.00,CLR,SKC,0.00,WeatherDisplay:10.37,2013-06-13 21:27:00,
2013-06-13 17:32:00,90.0,74.2,29.47,WSW,247,6.9,6.9,60,0.00,CLR,SKC,0.00,WeatherDisplay:10.37,2013-06-13 21:32:00,
2013-06-13 17:37:00,86.0,66.9,29.47,West,270,23.0,23.0,53,0.00,CLR,SKC,0.00,WeatherDisplay:10.37,2013-06-13 21:37:00,
2013-06-13 17:42:00,79.0,64.9,29.54,West,270,19.6,19.6,62,0.00,CLR,SKC,0.00,WeatherDisplay:10.37,2013-06-13 21:42:00,
2013-06-13 17:47:00,76.0,65.5,29.54,West,270,19.6,19.6,70,0.00,CLR,SKC,0.00,WeatherDisplay:10.37,2013-06-13 21:47:00,
2013-06-13 17:52:00,68.0,68.0,29.63,West,270,20.0,20.0,100,0.00,CLR,SKC,0.00,WeatherDisplay:10.37,2013-06-13 21:52:00,
2013-06-13 17:57:00,66.0,66.0,29.63,WSW,247,10.4,10.4,100,0.01,RA,SKC,0.01,WeatherDisplay:10.37,2013-06-13 21:57:00,
2013-06-13 18:02:00,66.0,66.0,29.67,WSW,247,8.1,8.1,100,0.02,RA,SKC,0.02,WeatherDisplay:10.37,2013-06-13 22:02:00,
2013-06-13 18:07:00,66.0,66.0,29.67,WSW,247,4.6,4.6,100,0.03,RA,SKC,0.03,WeatherDisplay:10.37,2013-06-13 22:07:00,
2013-06-13 18:12:00,66.0,66.0,29.69,WSW,247,4.6,4.6,100,0.04,RA,SKC,0.04,WeatherDisplay:10.37,2013-06-13 22:12:00,
2013-06-13 18:17:00,66.0,66.0,29.69,WSW,247,4.6,4.6,100,0.05,RA,SKC,0.05,WeatherDisplay:10.37,2013-06-13 22:17:00,
2013-06-13 18:22:00,66.0,66.0,29.69,WSW,247,3.5,3.5,100,0.05,RA,SKC,0.05,WeatherDisplay:10.37,2013-06-13 22:22:00,
2013-06-13 18:27:00,66.0,66.0,29.69,WSW,247,0.0,0.0,100,0.06,RA,SKC,0.06,WeatherDisplay:10.37,2013-06-13 22:27:00,
2013-06-13 18:32:00,66.0,66.0,29.67,WSW,247,3.5,3.5,100,0.07,RA,SKC,0.07,WeatherDisplay:10.37,2013-06-13 22:32:00,
2013-06-13 18:37:00,66.0,66.0,29.67,WSW,247,2.3,2.3,100,0.07,RA,SKC,0.07,WeatherDisplay:10.37,2013-06-13 22:37:00,
2013-06-13 18:42:00,66.0,66.0,29.65,WSW,247,0.0,0.0,100,0.08,RA,SKC,0.08,WeatherDisplay:10.37,2013-06-13 22:42:00,
2013-06-13 18:47:00,66.0,66.0,29.65,WSW,247,3.5,3.5,100,0.08,RA,SKC,0.08,WeatherDisplay:10.37,2013-06-13 22:47:00,
2013-06-13 18:52:00,66.0,66.0,29.63,SSE,157,3.0,3.0,100,0.09,RA,SKC,0.09,WeatherDisplay:10.37,2013-06-13 22:52:00,
2013-06-13 18:57:00,66.0,66.0,29.63,SSW,202,3.5,3.5,100,0.08,RA,SKC,0.09,WeatherDisplay:10.37,2013-06-13 22:57:00,
2013-06-13 19:02:00,66.0,66.0,29.63,NW,315,3.5,3.5,100,0.07,,SKC,0.09,WeatherDisplay:10.37,2013-06-13 23:02:00,
2013-06-13 19:07:00,66.0,66.0,29.63,NW,315,2.3,2.3,100,0.06,CLR,SKC,0.10,WeatherDisplay:10.37,2013-06-13 23:07:00,
2013-06-13 19:12:00,67.0,67.0,29.65,NW,315,0.0,0.1,100,0.06,RA,SKC,0.10,WeatherDisplay:10.37,2013-06-13 23:12:00,
2013-06-13 19:17:00,66.0,66.0,29.65,WSW,247,3.5,3.5,100,0.05,RA,SKC,0.10,WeatherDisplay:10.37,2013-06-13 23:17:00,
2013-06-13 19:22:00,67.0,67.0,29.65,WSW,247,3.5,3.5,100,0.06,RA,SKC,0.11,WeatherDisplay:10.37,2013-06-13 23:22:00,
2013-06-13 19:27:00,67.0,67.0,29.65,WSW,247,3.5,3.5,100,0.05,RA,SKC,0.11,WeatherDisplay:10.37,2013-06-13 23:27:00,
2013-06-13 19:32:00,66.0,66.0,29.66,WSW,247,5.0,5.0,100,0.04,,SKC,0.11,WeatherDisplay:10.37,2013-06-13 23:32:00,
2013-06-13 19:37:00,67.0,67.0,29.66,WSW,247,4.6,4.6,100,0.04,CLR,SKC,0.11,WeatherDisplay:10.37,2013-06-13 23:37:00,
2013-06-13 19:42:00,66.0,66.0,29.68,WSW,247,4.6,4.6,100,0.03,CLR,SKC,0.11,WeatherDisplay:10.37,2013-06-13 23:42:00,
2013-06-13 19:47:00,67.0,67.0,29.68,WSW,247,5.8,5.8,100,0.04,RA,SKC,0.12,WeatherDisplay:10.37,2013-06-13 23:47:00,
2013-06-13 19:52:00,67.0,67.0,29.68,WSW,247,3.5,3.5,100,0.03,RA,SKC,0.12,WeatherDisplay:10.37,2013-06-13 23:52:00,
2013-06-13 19:58:00,67.0,67.0,29.68,WSW,247,4.6,4.6,100,0.03,CLR,SKC,0.12,WeatherDisplay:10.37,2013-06-13 23:58:00,
2013-06-13 20:03:00,67.0,67.0,29.68,WSW,247,3.5,3.5,100,0.04,RA,SKC,0.13,WeatherDisplay:10.37,2013-06-14 00:03:00,
2013-06-13 20:08:00,67.0,67.0,29.68,WSW,247,4.0,4.0,100,0.04,RA,SKC,0.13,WeatherDisplay:10.37,2013-06-14 00:08:00,
2013-06-13 20:13:00,67.0,67.0,29.67,WSW,247,4.0,4.0,100,0.03,,SKC,0.13,WeatherDisplay:10.37,2013-06-14 00:13:00,
2013-06-13 20:18:00,67.0,67.0,29.67,WSW,247,4.6,4.6,100,0.03,CLR,SKC,0.13,WeatherDisplay:10.37,2013-06-14 00:18:00,
2013-06-13 20:23:00,67.0,67.0,29.67,WSW,247,3.5,3.5,100,0.02,CLR,SKC,0.13,WeatherDisplay:10.37,2013-06-14 00:23:00,
2013-06-13 20:28:00,67.0,67.0,29.67,WSW,247,3.5,3.5,100,0.03,RA,SKC,0.14,WeatherDisplay:10.37,2013-06-14 00:28:00,
2013-06-13 20:33:00,67.0,67.0,29.67,WSW,247,3.5,3.5,100,0.03,RA,SKC,0.14,WeatherDisplay:10.37,2013-06-14 00:33:00,
2013-06-13 20:38:00,67.0,67.0,29.67,WSW,247,4.0,4.0,100,0.03,CLR,SKC,0.14,WeatherDisplay:10.37,2013-06-14 00:38:00,
2013-06-13 20:43:00,67.0,67.0,29.67,WSW,247,4.6,4.6,100,0.04,RA,SKC,0.15,WeatherDisplay:10.37,2013-06-14 00:43:00,
2013-06-13 20:48:00,67.0,67.0,29.67,WSW,247,4.0,4.0,100,0.03,RA,SKC,0.15,WeatherDisplay:10.37,2013-06-14 00:48:00,
2013-06-13 20:53:00,67.0,67.0,29.67,WSW,247,4.6,4.6,100,0.03,CLR,SKC,0.15,WeatherDisplay:10.37,2013-06-14 00:53:00,
2013-06-13 20:58:00,67.0,67.0,29.67,WSW,247,4.6,4.6,100,0.03,CLR,SKC,0.15,WeatherDisplay:10.37,2013-06-14 00:58:00,
2013-06-13 21:03:00,67.0,67.0,29.67,WSW,247,4.0,4.0,100,0.02,CLR,SKC,0.15,WeatherDisplay:10.37,2013-06-14 01:03:00,
2013-06-13 21:08:00,67.0,67.0,29.67,WSW,247,4.6,4.6,100,0.03,RA,SKC,0.16,WeatherDisplay:10.37,2013-06-14 01:08:00,
2013-06-13 21:13:00,67.0,67.0,29.67,WSW,247,4.6,4.6,100,0.03,RA,SKC,0.16,WeatherDisplay:10.37,2013-06-14 01:13:00,
2013-06-13 21:18:00,67.0,67.0,29.67,WSW,247,4.6,4.6,100,0.03,CLR,SKC,0.16,WeatherDisplay:10.37,2013-06-14 01:18:00,
2013-06-13 21:23:00,67.0,67.0,29.67,WSW,247,4.6,4.6,100,0.03,CLR,SKC,0.17,WeatherDisplay:10.37,2013-06-14 01:23:00,
2013-06-13 21:28:00,67.0,67.0,29.67,WSW,247,4.0,4.0,100,0.03,RA,SKC,0.17,WeatherDisplay:10.37,2013-06-14 01:28:00,
2013-06-13 21:33:00,67.0,67.0,29.67,WSW,247,3.5,3.5,100,0.03,RA,SKC,0.17,WeatherDisplay:10.37,2013-06-14 01:33:00,
2013-06-13 21:38:00,67.0,67.0,29.67,WSW,247,3.5,3.5,100,0.03,CLR,SKC,0.17,WeatherDisplay:10.37,2013-06-14 01:38:00,
2013-06-13 21:43:00,67.0,67.0,29.68,WSW,247,3.5,3.5,100,0.02,CLR,SKC,0.17,WeatherDisplay:10.37,2013-06-14 01:43:00,
2013-06-13 21:48:00,67.0,67.0,29.68,WSW,247,4.0,4.0,100,0.02,CLR,SKC,0.18,WeatherDisplay:10.37,2013-06-14 01:48:00,
2013-06-13 21:53:00,67.0,67.0,29.68,WSW,247,3.5,3.5,100,0.03,RA,SKC,0.18,WeatherDisplay:10.37,2013-06-14 01:53:00,
2013-06-13 21:58:00,67.0,67.0,29.68,WSW,247,3.5,3.5,100,0.03,RA,SKC,0.18,WeatherDisplay:10.37,2013-06-14 01:58:00,
2013-06-13 22:03:00,67.0,67.0,29.68,WSW,247,3.5,3.5,100,0.04,RA,SKC,0.19,WeatherDisplay:10.37,2013-06-14 02:03:00,
2013-06-13 22:08:00,67.0,67.0,29.68,WSW,247,3.5,3.5,100,0.03,RA,SKC,0.19,WeatherDisplay:10.37,2013-06-14 02:08:00,
2013-06-13 22:13:00,67.0,67.0,29.68,WSW,247,3.5,3.5,100,0.03,,SKC,0.19,WeatherDisplay:10.37,2013-06-14 02:13:00,
2013-06-13 22:18:00,67.0,67.0,29.68,WSW,247,3.5,3.5,100,0.03,CLR,SKC,0.19,WeatherDisplay:10.37,2013-06-14 02:18:00,
2013-06-13 22:23:00,67.0,67.0,29.68,WSW,247,3.5,3.5,100,0.04,RA,SKC,0.20,WeatherDisplay:10.37,2013-06-14 02:23:00,
2013-06-13 22:28:00,67.0,67.0,29.68,WSW,247,3.5,3.5,100,0.03,RA,SKC,0.20,WeatherDisplay:10.37,2013-06-14 02:28:00,
2013-06-13 22:33:00,67.0,67.0,29.68,WSW,247,3.5,3.5,100,0.03,,SKC,0.20,WeatherDisplay:10.37,2013-06-14 02:33:00,
2013-06-13 22:38:00,67.0,67.0,29.68,WSW,247,3.5,3.5,100,0.04,RA,SKC,0.21,WeatherDisplay:10.37,2013-06-14 02:38:00,
2013-06-13 22:43:00,67.0,67.0,29.69,WSW,247,4.0,4.0,100,0.04,RA,SKC,0.21,WeatherDisplay:10.37,2013-06-14 02:43:00,
2013-06-13 22:48:00,67.0,67.0,29.69,WSW,247,4.6,4.6,100,0.04,,SKC,0.21,WeatherDisplay:10.37,2013-06-14 02:48:00,
2013-06-13 22:53:00,67.0,67.0,29.69,WSW,247,4.0,4.0,100,0.03,CLR,SKC,0.21,WeatherDisplay:10.37,2013-06-14 02:53:00,
2013-06-13 22:58:00,67.0,67.0,29.69,WSW,247,3.5,3.5,100,0.03,CLR,SKC,0.22,WeatherDisplay:10.37,2013-06-14 02:58:00,
2013-06-13 23:03:00,67.0,67.0,29.69,WSW,247,4.0,4.0,100,0.03,RA,SKC,0.22,WeatherDisplay:10.37,2013-06-14 03:03:00,
2013-06-13 23:08:00,67.0,67.0,29.69,WSW,247,4.6,4.6,100,0.03,RA,SKC,0.22,WeatherDisplay:10.37,2013-06-14 03:08:00,
2013-06-13 23:13:00,67.0,67.0,29.70,WSW,247,4.0,4.0,100,0.04,RA,SKC,0.23,WeatherDisplay:10.37,2013-06-14 03:13:00,
2013-06-13 23:18:00,67.0,67.0,29.70,WSW,247,4.0,4.0,100,0.04,RA,SKC,0.23,WeatherDisplay:10.37,2013-06-14 03:18:00,
2013-06-13 23:23:00,66.0,66.0,29.70,WSW,247,4.0,4.0,100,0.03,,SKC,0.23,WeatherDisplay:10.37,2013-06-14 03:23:00,
2013-06-13 23:28:00,66.0,66.0,29.70,WSW,247,3.5,3.5,100,0.03,CLR,SKC,0.23,WeatherDisplay:10.37,2013-06-14 03:28:00,
2013-06-13 23:33:00,66.0,66.0,29.71,WSW,247,3.5,3.5,100,0.04,RA,SKC,0.24,WeatherDisplay:10.37,2013-06-14 03:33:00,
2013-06-13 23:38:00,66.0,66.0,29.71,WSW,247,3.5,3.5,100,0.03,RA,SKC,0.24,WeatherDisplay:10.37,2013-06-14 03:38:00,
2013-06-13 23:43:00,66.0,66.0,29.72,WSW,247,4.0,4.0,100,0.03,CLR,SKC,0.25,WeatherDisplay:10.37,2013-06-14 03:43:00,
2013-06-13 23:48:00,66.0,66.0,29.72,WSW,247,3.5,3.5,100,0.04,RA,SKC,0.25,WeatherDisplay:10.37,2013-06-14 03:48:00,
2013-06-13 23:53:00,66.0,66.0,29.72,WSW,247,5.0,5.0,100,0.04,RA,SKC,0.25,WeatherDisplay:10.37,2013-06-14 03:53:00,
2013-06-13 23:58:00,66.0,66.0,29.72,WSW,247,4.0,4.0,100,0.04,CLR,SKC,0.25,WeatherDisplay:10.37,2013-06-14 03:58:00,